createdAt,value
2023-05-02T00:00:10.193Z,101148.59
2023-05-02T00:00:32.283Z,101150.59
2023-05-02T00:00:54.988Z,101150.69
2023-05-02T00:01:16.872Z,101151.31
2023-05-02T00:01:38.830Z,101153.28
2023-05-02T00:02:00.803Z,101152.14
2023-05-02T00:02:22.716Z,101153.95
2023-05-02T00:02:44.800Z,101155.08
2023-05-02T00:03:07.754Z,101156.77
2023-05-02T00:03:30.200Z,101157.72
2023-05-02T00:03:52.264Z,101156.92
2023-05-02T00:04:14.266Z,101159.78
2023-05-02T00:04:36.332Z,101160.43
2023-05-02T00:04:58.254Z,101162.27
2023-05-02T00:05:20.293Z,101164.46
2023-05-02T00:05:42.315Z,101164.02
2023-05-02T00:06:04.190Z,101163.76
2023-05-02T00:06:26.049Z,101161.76
2023-05-02T00:06:47.965Z,101161.85
2023-05-02T00:07:09.938Z,101161.20
2023-05-02T00:07:31.714Z,101161.29
2023-05-02T00:07:53.498Z,101160.66
2023-05-02T00:08:16.511Z,101160.02
2023-05-02T00:08:38.295Z,101161.52
2023-05-02T00:09:00.195Z,101157.17
2023-05-02T00:09:21.909Z,101156.55
2023-05-02T00:09:43.761Z,101160.30
2023-05-02T00:10:06.276Z,101159.33
2023-05-02T00:10:28.145Z,101158.48
2023-05-02T00:10:49.926Z,101159.25
2023-05-02T00:11:11.920Z,101160.00
2023-05-02T00:11:33.797Z,101160.46
2023-05-02T00:11:55.582Z,101157.29
2023-05-02T00:12:17.284Z,101156.72
2023-05-02T00:12:39.166Z,101157.56
2023-05-02T00:13:00.934Z,101158.16
2023-05-02T00:13:23.937Z,101155.46
2023-05-02T00:13:45.850Z,101160.11
2023-05-02T00:14:09.620Z,101157.79
2023-05-02T00:14:33.278Z,101158.21
2023-05-02T00:14:57.531Z,101158.98
2023-05-02T00:15:21.974Z,101156.34
2023-05-02T00:15:43.753Z,101160.14
2023-05-02T00:16:05.851Z,101158.86
2023-05-02T00:16:27.629Z,101159.91
2023-05-02T00:16:49.572Z,101161.70
2023-05-02T00:17:17.510Z,101163.11
2023-05-02T00:17:42.444Z,101158.61
2023-05-02T00:18:04.293Z,101159.20
2023-05-02T00:18:26.065Z,101163.14
2023-05-02T00:18:49.562Z,101165.27
2023-05-02T00:19:11.371Z,101161.87
2023-05-02T00:19:33.128Z,101163.66
2023-05-02T00:19:55.554Z,101164.59
2023-05-02T00:20:17.340Z,101165.21
2023-05-02T00:20:40.248Z,101168.80
2023-05-02T00:21:02.029Z,101167.44
2023-05-02T00:21:23.855Z,101164.22
2023-05-02T00:21:48.082Z,101166.17
2023-05-02T00:22:09.801Z,101162.20
2023-05-02T00:22:32.354Z,101164.19
2023-05-02T00:22:55.869Z,101164.23
2023-05-02T00:23:17.657Z,101163.25
2023-05-02T00:23:39.392Z,101162.41
2023-05-02T00:24:01.425Z,101165.28
2023-05-02T00:24:23.171Z,101165.54
2023-05-02T00:24:44.992Z,101166.97
2023-05-02T00:25:07.091Z,101165.11
2023-05-02T00:25:28.867Z,101164.30
2023-05-02T00:25:51.080Z,101165.59
2023-05-02T00:26:13.052Z,101166.54
2023-05-02T00:26:35.961Z,101165.38
2023-05-02T00:26:57.746Z,101166.33
2023-05-02T00:27:19.454Z,101166.39
2023-05-02T00:27:41.214Z,101165.94
2023-05-02T00:28:02.995Z,101169.05
2023-05-02T00:28:26.548Z,101171.34
2023-05-02T00:28:48.302Z,101173.02
2023-05-02T00:29:09.998Z,101169.22
2023-05-02T00:29:31.775Z,101172.59
2023-05-02T00:29:53.867Z,101172.59
2023-05-02T00:30:15.847Z,101170.80
2023-05-02T00:30:42.263Z,101175.47
2023-05-02T00:31:04.899Z,101172.64
2023-05-02T00:31:26.885Z,101173.75
2023-05-02T00:31:48.815Z,101172.61
2023-05-02T00:32:10.810Z,101170.63
2023-05-02T00:32:32.548Z,101171.63
2023-05-02T00:32:55.027Z,101169.29
2023-05-02T00:33:16.880Z,101169.98
2023-05-02T00:33:38.615Z,101168.53
2023-05-02T00:34:00.447Z,101167.80
2023-05-02T00:34:22.347Z,101166.20
2023-05-02T00:34:44.325Z,101167.48
2023-05-02T00:35:06.539Z,101169.41
2023-05-02T00:35:28.914Z,101172.27
2023-05-02T00:35:52.538Z,101170.25
2023-05-02T00:36:17.812Z,101167.49
2023-05-02T00:36:39.597Z,101169.39
2023-05-02T00:37:01.373Z,101171.15
2023-05-02T00:37:25.954Z,101169.55
2023-05-02T00:37:47.811Z,101167.20
2023-05-02T00:38:09.560Z,101169.25
2023-05-02T00:38:31.684Z,101169.55
2023-05-02T00:38:53.468Z,101166.02
2023-05-02T00:39:15.344Z,101174.83
2023-05-02T00:39:37.239Z,101174.71
2023-05-02T00:39:59.318Z,101175.88
2023-05-02T00:40:21.723Z,101174.20
2023-05-02T00:40:45.255Z,101173.81
2023-05-02T00:41:07.146Z,101173.40
2023-05-02T00:41:29.146Z,101174.77
2023-05-02T00:41:59.820Z,101177.36
2023-05-02T00:42:21.573Z,101176.15
2023-05-02T00:42:43.270Z,101173.25
2023-05-02T00:43:04.980Z,101175.56
2023-05-02T00:43:26.841Z,101176.10
2023-05-02T00:43:48.837Z,101175.20
2023-05-02T00:44:10.622Z,101173.58
2023-05-02T00:44:32.808Z,101174.11
2023-05-02T00:44:54.839Z,101177.23
2023-05-02T00:45:16.787Z,101177.81
2023-05-02T00:45:40.748Z,101173.58
2023-05-02T00:46:02.609Z,101178.42
2023-05-02T00:46:24.964Z,101177.00
2023-05-02T00:46:47.334Z,101175.21
2023-05-02T00:47:09.290Z,101177.02
2023-05-02T00:47:31.341Z,101177.58
2023-05-02T00:47:53.328Z,101177.09
2023-05-02T00:48:15.543Z,101178.55
2023-05-02T00:48:37.452Z,101179.65
2023-05-02T00:48:59.244Z,101181.80
2023-05-02T00:49:21.131Z,101178.89
2023-05-02T00:49:43.109Z,101183.16
2023-05-02T00:50:05.734Z,101179.90
2023-05-02T00:50:28.418Z,101183.65
2023-05-02T00:50:50.114Z,101181.31
2023-05-02T00:51:13.426Z,101184.20
2023-05-02T00:51:35.203Z,101182.73
2023-05-02T00:51:56.996Z,101186.30
2023-05-02T00:52:18.875Z,101181.34
2023-05-02T00:52:40.656Z,101182.30
2023-05-02T00:53:03.978Z,101182.71
2023-05-02T00:53:26.056Z,101184.58
2023-05-02T00:53:48.167Z,101180.97
2023-05-02T00:54:11.175Z,101179.45
2023-05-02T00:54:32.880Z,101182.64
2023-05-02T00:54:54.748Z,101182.24
2023-05-02T00:55:17.042Z,101181.94
2023-05-02T00:55:38.819Z,101183.40
2023-05-02T00:56:02.344Z,101184.17
2023-05-02T00:56:24.131Z,101186.50
2023-05-02T00:56:46.627Z,101186.52
2023-05-02T00:57:08.416Z,101189.20
2023-05-02T00:57:30.403Z,101185.91
2023-05-02T00:57:52.797Z,101189.45
2023-05-02T00:58:15.202Z,101191.08
2023-05-02T00:58:38.009Z,101187.57
2023-05-02T00:59:00.149Z,101187.14
2023-05-02T00:59:21.995Z,101190.16
2023-05-02T00:59:44.588Z,101186.55
2023-05-02T01:00:06.997Z,101190.92
2023-05-02T01:00:37.575Z,101190.79
2023-05-02T01:01:02.219Z,101191.17
2023-05-02T01:01:47.694Z,101189.54
2023-05-02T01:02:12.012Z,101189.05
2023-05-02T01:02:44.176Z,101190.46
2023-05-02T01:03:10.797Z,101189.60
2023-05-02T01:03:37.325Z,101191.01
2023-05-02T01:04:08.485Z,101191.91
2023-05-02T01:04:32.289Z,101189.52
2023-05-02T01:05:00.007Z,101189.38
2023-05-02T01:05:23.023Z,101186.67
2023-05-02T01:05:46.961Z,101188.32
2023-05-02T01:06:15.286Z,101188.56
2023-05-02T01:06:37.790Z,101188.55
2023-05-02T01:07:19.294Z,101191.46
2023-05-02T01:07:44.058Z,101189.60
2023-05-02T01:08:05.935Z,101190.30
2023-05-02T01:08:36.151Z,101189.80
2023-05-02T01:09:07.094Z,101191.56
2023-05-02T01:09:39.412Z,101193.20
2023-05-02T01:10:10.017Z,101195.14
2023-05-02T01:10:50.599Z,101195.59
2023-05-02T01:11:15.989Z,101195.31
2023-05-02T01:11:50.123Z,101196.39
2023-05-02T01:12:30.857Z,101198.21
2023-05-02T01:13:07.972Z,101198.09
2023-05-02T01:13:32.320Z,101199.70
2023-05-02T01:13:54.079Z,101201.85
2023-05-02T01:14:16.089Z,101202.77
2023-05-02T01:14:42.042Z,101206.85
2023-05-02T01:15:06.236Z,101204.46
2023-05-02T01:15:31.333Z,101205.22
2023-05-02T01:15:53.498Z,101205.59
2023-05-02T01:16:15.831Z,101204.58
2023-05-02T01:16:42.331Z,101205.66
2023-05-02T01:17:05.837Z,101206.39
2023-05-02T01:17:28.840Z,101208.70
2023-05-02T01:17:51.179Z,101206.85
2023-05-02T01:18:13.738Z,101207.20
2023-05-02T01:18:36.150Z,101208.65
2023-05-02T01:18:58.136Z,101210.10
2023-05-02T01:19:22.275Z,101206.96
2023-05-02T01:19:45.288Z,101206.99
2023-05-02T01:20:08.500Z,101209.70
2023-05-02T01:20:30.389Z,101210.96
2023-05-02T01:20:53.402Z,101209.58
2023-05-02T01:21:15.601Z,101211.82
2023-05-02T01:21:37.628Z,101212.66
2023-05-02T01:21:59.338Z,101209.45
2023-05-02T01:22:21.089Z,101213.57
2023-05-02T01:22:43.448Z,101210.70
2023-05-02T01:23:07.517Z,101212.34
2023-05-02T01:23:48.115Z,101213.06
2023-05-02T01:24:15.714Z,101215.54
2023-05-02T01:24:57.748Z,101215.87
2023-05-02T01:25:33.745Z,101215.17
2023-05-02T01:26:15.766Z,101214.50
2023-05-02T01:26:41.277Z,101216.17
2023-05-02T01:27:08.804Z,101217.89
2023-05-02T01:27:49.351Z,101216.51
2023-05-02T01:28:30.160Z,101218.68
2023-05-02T01:28:53.492Z,101218.02
2023-05-02T01:29:15.231Z,101215.97
2023-05-02T01:29:37.349Z,101213.77
2023-05-02T01:29:59.957Z,101218.05
2023-05-02T01:30:21.820Z,101217.59
2023-05-02T01:30:43.841Z,101219.39
2023-05-02T01:31:05.773Z,101221.53
2023-05-02T01:31:31.719Z,101219.50
2023-05-02T01:31:53.564Z,101221.11
2023-05-02T01:32:15.591Z,101220.45
2023-05-02T01:32:37.671Z,101222.09
2023-05-02T01:32:59.857Z,101222.16
2023-05-02T01:33:24.572Z,101224.70
2023-05-02T01:33:46.288Z,101222.23
2023-05-02T01:34:11.047Z,101223.34
2023-05-02T01:34:33.396Z,101222.16
2023-05-02T01:34:55.216Z,101222.91
2023-05-02T01:35:17.436Z,101221.70
2023-05-02T01:35:39.234Z,101223.27
2023-05-02T01:36:01.086Z,101224.70
2023-05-02T01:36:23.587Z,101226.61
2023-05-02T01:36:46.906Z,101224.13
2023-05-02T01:37:10.447Z,101227.01
2023-05-02T01:37:33.469Z,101228.84
2023-05-02T01:37:55.949Z,101225.05
2023-05-02T01:38:18.669Z,101225.66
2023-05-02T01:38:40.844Z,101225.60
2023-05-02T01:39:03.164Z,101226.75
2023-05-02T01:39:25.137Z,101224.04
2023-05-02T01:39:47.226Z,101227.77
2023-05-02T01:40:09.307Z,101226.85
2023-05-02T01:40:34.235Z,101226.61
2023-05-02T01:40:56.051Z,101227.98
2023-05-02T01:41:18.547Z,101227.83
2023-05-02T01:41:40.338Z,101225.61
2023-05-02T01:42:02.740Z,101225.64
2023-05-02T01:42:24.515Z,101226.54
2023-05-02T01:42:47.329Z,101227.32
2023-05-02T01:43:09.107Z,101225.84
2023-05-02T01:43:31.908Z,101224.69
2023-05-02T01:43:54.622Z,101225.09
2023-05-02T01:44:17.271Z,101224.62
2023-05-02T01:44:39.936Z,101229.44
2023-05-02T01:45:01.822Z,101226.71
2023-05-02T01:45:23.597Z,101223.29
2023-05-02T01:45:45.788Z,101228.25
2023-05-02T01:46:07.695Z,101228.34
2023-05-02T01:46:36.870Z,101228.27
2023-05-02T01:46:59.066Z,101230.05
2023-05-02T01:47:21.753Z,101231.20
2023-05-02T01:47:43.962Z,101231.63
2023-05-02T01:48:06.676Z,101233.16
2023-05-02T01:48:29.027Z,101229.01
2023-05-02T01:48:50.927Z,101229.64
2023-05-02T01:49:12.803Z,101229.54
2023-05-02T01:49:35.402Z,101229.63
2023-05-02T01:49:58.808Z,101228.35
2023-05-02T01:50:23.091Z,101228.96
2023-05-02T01:50:45.795Z,101228.37
2023-05-02T01:51:08.165Z,101226.71
2023-05-02T01:51:32.012Z,101226.52
2023-05-02T01:51:53.784Z,101225.73
2023-05-02T01:52:15.576Z,101226.86
2023-05-02T01:52:38.696Z,101226.44
2023-05-02T01:53:01.486Z,101228.10
2023-05-02T01:53:24.089Z,101227.65
2023-05-02T01:53:46.381Z,101230.17
2023-05-02T01:54:08.579Z,101231.11
2023-05-02T01:54:30.669Z,101229.98
2023-05-02T01:54:52.374Z,101231.80
2023-05-02T01:55:15.056Z,101231.50
2023-05-02T01:55:36.943Z,101232.75
2023-05-02T01:55:58.776Z,101232.09
2023-05-02T01:56:20.611Z,101230.48
2023-05-02T01:56:43.842Z,101229.26
2023-05-02T01:57:06.461Z,101229.71
2023-05-02T01:57:28.324Z,101230.05
2023-05-02T01:57:50.722Z,101227.82
2023-05-02T01:58:12.435Z,101230.74
2023-05-02T01:58:34.593Z,101231.00
2023-05-02T01:58:56.381Z,101227.10
2023-05-02T01:59:18.879Z,101233.20
2023-05-02T01:59:40.886Z,101232.42
2023-05-02T02:00:05.004Z,101232.92
2023-05-02T02:00:34.932Z,101231.48
2023-05-02T02:00:57.739Z,101231.66
2023-05-02T02:01:19.819Z,101230.15
2023-05-02T02:01:43.773Z,101231.03
2023-05-02T02:02:06.203Z,101233.20
2023-05-02T02:02:27.935Z,101232.73
2023-05-02T02:02:50.138Z,101231.04
2023-05-02T02:03:12.083Z,101231.61
2023-05-02T02:03:34.000Z,101232.55
2023-05-02T02:03:56.114Z,101231.75
2023-05-02T02:04:19.638Z,101231.69
2023-05-02T02:04:41.778Z,101235.63
2023-05-02T02:05:05.586Z,101232.73
2023-05-02T02:05:27.378Z,101235.07
2023-05-02T02:05:49.121Z,101234.27
2023-05-02T02:06:11.009Z,101234.35
2023-05-02T02:06:33.271Z,101233.36
2023-05-02T02:07:01.461Z,101234.30
2023-05-02T02:07:23.239Z,101235.27
2023-05-02T02:07:45.028Z,101235.16
2023-05-02T02:08:06.836Z,101239.59
2023-05-02T02:08:28.605Z,101237.58
2023-05-02T02:08:50.704Z,101241.66
2023-05-02T02:09:12.480Z,101243.30
2023-05-02T02:09:34.498Z,101245.29
2023-05-02T02:09:57.542Z,101245.52
2023-05-02T02:10:19.678Z,101246.08
2023-05-02T02:10:41.666Z,101246.63
2023-05-02T02:11:04.779Z,101250.33
2023-05-02T02:11:35.048Z,101253.02
2023-05-02T02:12:06.344Z,101251.98
2023-05-02T02:12:32.324Z,101255.65
2023-05-02T02:12:54.846Z,101257.38
2023-05-02T02:13:34.819Z,101256.61
2023-05-02T02:14:01.982Z,101259.60
2023-05-02T02:14:25.854Z,101256.30
2023-05-02T02:14:49.167Z,101259.50
2023-05-02T02:15:11.263Z,101262.01
2023-05-02T02:15:34.842Z,101259.49
2023-05-02T02:15:58.200Z,101263.77
2023-05-02T02:16:21.875Z,101262.31
2023-05-02T02:16:43.729Z,101261.01
2023-05-02T02:17:07.182Z,101260.63
2023-05-02T02:17:37.150Z,101256.04
2023-05-02T02:17:59.634Z,101258.52
2023-05-02T02:18:22.415Z,101256.15
2023-05-02T02:18:44.102Z,101256.01
2023-05-02T02:19:06.594Z,101256.26
2023-05-02T02:19:28.376Z,101258.58
2023-05-02T02:19:51.293Z,101260.23
2023-05-02T02:20:13.167Z,101258.36
2023-05-02T02:20:34.954Z,101259.30
2023-05-02T02:20:57.558Z,101257.08
2023-05-02T02:21:19.853Z,101260.48
2023-05-02T02:21:44.600Z,101262.65
2023-05-02T02:22:06.594Z,101265.17
2023-05-02T02:22:28.425Z,101267.66
2023-05-02T02:22:50.265Z,101268.28
2023-05-02T02:23:12.075Z,101266.79
2023-05-02T02:23:33.867Z,101264.36
2023-05-02T02:23:56.345Z,101267.90
2023-05-02T02:24:18.937Z,101269.20
2023-05-02T02:24:40.737Z,101268.55
2023-05-02T02:25:02.505Z,101272.27
2023-05-02T02:25:24.490Z,101273.92
2023-05-02T02:25:46.284Z,101273.46
2023-05-02T02:26:10.210Z,101272.50
2023-05-02T02:26:32.002Z,101277.11
2023-05-02T02:26:53.792Z,101278.77
2023-05-02T02:27:15.563Z,101281.45
2023-05-02T02:27:37.879Z,101282.35
2023-05-02T02:27:59.650Z,101282.89
2023-05-02T02:28:22.553Z,101281.53
2023-05-02T02:28:44.344Z,101282.53
2023-05-02T02:29:06.126Z,101282.31
2023-05-02T02:29:28.120Z,101282.46
2023-05-02T02:29:49.896Z,101279.26
2023-05-02T02:30:11.795Z,101282.83
2023-05-02T02:30:33.519Z,101285.20
2023-05-02T02:30:55.888Z,101283.74
2023-05-02T02:31:17.778Z,101286.68
2023-05-02T02:31:40.002Z,101286.95
2023-05-02T02:32:01.829Z,101284.59
2023-05-02T02:32:24.796Z,101279.10
2023-05-02T02:32:46.667Z,101280.97
2023-05-02T02:33:09.066Z,101284.12
2023-05-02T02:33:31.322Z,101282.23
2023-05-02T02:33:53.513Z,101284.70
2023-05-02T02:34:15.203Z,101288.21
2023-05-02T02:34:36.983Z,101288.80
2023-05-02T02:34:59.703Z,101287.42
2023-05-02T02:35:21.465Z,101291.52
2023-05-02T02:35:43.701Z,101289.77
2023-05-02T02:36:07.904Z,101292.30
2023-05-02T02:36:49.882Z,101292.69
2023-05-02T02:37:14.993Z,101294.02
2023-05-02T02:37:41.390Z,101292.84
2023-05-02T02:38:09.526Z,101291.18
2023-05-02T02:38:34.369Z,101292.80
2023-05-02T02:39:01.577Z,101295.17
2023-05-02T02:39:35.368Z,101295.20
2023-05-02T02:40:32.591Z,101294.59
2023-05-02T02:41:02.764Z,101296.46
2023-05-02T02:41:28.025Z,101295.52
2023-05-02T02:41:59.317Z,101295.60
2023-05-02T02:42:39.928Z,101292.86
2023-05-02T02:43:16.638Z,101293.73
2023-05-02T02:43:56.831Z,101293.35
2023-05-02T02:44:23.218Z,101295.65
2023-05-02T02:44:51.242Z,101297.84
2023-05-02T02:45:13.033Z,101297.38
2023-05-02T02:45:41.154Z,101298.34
2023-05-02T02:46:06.676Z,101298.05
2023-05-02T02:46:31.884Z,101300.06
2023-05-02T02:46:53.786Z,101303.84
2023-05-02T02:47:19.036Z,101302.05
2023-05-02T02:47:53.213Z,101305.00
2023-05-02T02:48:35.170Z,101306.39
2023-05-02T02:49:15.932Z,101304.20
2023-05-02T02:49:56.566Z,101305.31
2023-05-02T02:50:31.723Z,101305.39
2023-05-02T02:51:15.024Z,101307.91
2023-05-02T02:51:47.293Z,101308.52
2023-05-02T02:52:17.889Z,101310.30
2023-05-02T02:52:42.420Z,101311.41
2023-05-02T02:53:08.904Z,101310.02
2023-05-02T02:53:43.273Z,101309.89
2023-05-02T02:54:15.397Z,101311.70
2023-05-02T02:54:44.091Z,101317.70
2023-05-02T02:55:41.719Z,101313.19
2023-05-02T02:56:05.446Z,101318.86
2023-05-02T02:56:28.755Z,101318.88
2023-05-02T02:56:51.256Z,101319.77
2023-05-02T02:57:33.804Z,101321.70
2023-05-02T02:57:57.946Z,101320.14
2023-05-02T02:58:31.691Z,101323.84
2023-05-02T02:59:06.873Z,101324.02
2023-05-02T02:59:29.369Z,101326.98
2023-05-02T02:59:59.482Z,101326.41
2023-05-02T03:00:22.555Z,101322.84
2023-05-02T03:00:44.436Z,101323.09
2023-05-02T03:01:06.763Z,101324.27
2023-05-02T03:01:30.456Z,101318.71
2023-05-02T03:01:57.724Z,101320.92
2023-05-02T03:02:19.655Z,101323.77
2023-05-02T03:02:42.709Z,101324.90
2023-05-02T03:03:04.580Z,101324.60
2023-05-02T03:03:29.302Z,101326.39
2023-05-02T03:03:51.613Z,101324.73
2023-05-02T03:04:14.850Z,101324.82
2023-05-02T03:04:38.452Z,101323.92
2023-05-02T03:05:00.429Z,101327.18
2023-05-02T03:05:25.084Z,101325.23
2023-05-02T03:05:46.863Z,101331.70
2023-05-02T03:06:09.111Z,101333.60
2023-05-02T03:06:31.235Z,101331.50
2023-05-02T03:06:53.641Z,101328.34
2023-05-02T03:07:15.536Z,101330.44
2023-05-02T03:07:37.326Z,101332.52
2023-05-02T03:07:59.618Z,101333.52
2023-05-02T03:08:21.344Z,101335.05
2023-05-02T03:08:43.596Z,101332.95
2023-05-02T03:09:14.791Z,101334.15
2023-05-02T03:09:46.308Z,101339.85
2023-05-02T03:10:11.996Z,101335.44
2023-05-02T03:10:34.097Z,101339.78
2023-05-02T03:10:55.948Z,101339.52
2023-05-02T03:11:17.825Z,101341.05
2023-05-02T03:11:39.620Z,101340.31
2023-05-02T03:12:01.539Z,101343.58
2023-05-02T03:12:23.991Z,101341.39
2023-05-02T03:12:45.884Z,101342.54
2023-05-02T03:13:07.835Z,101343.30
2023-05-02T03:13:29.657Z,101349.11
2023-05-02T03:13:52.901Z,101350.89
2023-05-02T03:14:14.860Z,101346.17
2023-05-02T03:14:37.058Z,101346.49
2023-05-02T03:15:07.428Z,101346.63
2023-05-02T03:15:48.054Z,101346.36
2023-05-02T03:16:48.168Z,101344.77
2023-05-02T03:17:09.998Z,101341.15
2023-05-02T03:17:31.965Z,101343.19
2023-05-02T03:17:53.771Z,101339.16
2023-05-02T03:18:16.670Z,101342.40
2023-05-02T03:18:38.627Z,101341.45
2023-05-02T03:19:00.414Z,101342.76
2023-05-02T03:19:22.398Z,101345.13
2023-05-02T03:19:44.288Z,101344.17
2023-05-02T03:20:07.812Z,101348.46
2023-05-02T03:20:29.531Z,101346.63
2023-05-02T03:20:51.614Z,101346.44
2023-05-02T03:21:13.571Z,101350.06
2023-05-02T03:21:36.438Z,101348.77
2023-05-02T03:22:02.199Z,101348.21
2023-05-02T03:22:24.048Z,101347.05
2023-05-02T03:22:46.126Z,101346.70
2023-05-02T03:23:08.116Z,101348.91
2023-05-02T03:23:29.835Z,101351.02
2023-05-02T03:23:51.596Z,101351.14
2023-05-02T03:24:13.594Z,101356.15
2023-05-02T03:24:35.358Z,101354.01
2023-05-02T03:24:57.657Z,101355.84
2023-05-02T03:25:19.339Z,101354.05
2023-05-02T03:25:41.942Z,101354.14
2023-05-02T03:26:04.546Z,101357.36
2023-05-02T03:26:27.146Z,101355.49
2023-05-02T03:26:49.237Z,101353.38
2023-05-02T03:27:11.329Z,101355.44
2023-05-02T03:27:34.953Z,101355.39
2023-05-02T03:27:59.707Z,101357.84
2023-05-02T03:28:21.501Z,101357.42
2023-05-02T03:28:47.074Z,101357.84
2023-05-02T03:29:09.473Z,101359.86
2023-05-02T03:29:32.987Z,101359.46
2023-05-02T03:29:54.871Z,101361.01
2023-05-02T03:30:16.664Z,101362.59
2023-05-02T03:30:40.897Z,101359.96
2023-05-02T03:31:03.914Z,101365.25
2023-05-02T03:31:26.813Z,101366.00
2023-05-02T03:31:49.389Z,101367.96
2023-05-02T03:32:11.316Z,101369.28
2023-05-02T03:32:33.926Z,101366.53
2023-05-02T03:32:55.729Z,101365.44
2023-05-02T03:33:17.617Z,101365.17
2023-05-02T03:33:39.668Z,101360.35
2023-05-02T03:34:01.451Z,101360.30
2023-05-02T03:34:23.745Z,101364.60
2023-05-02T03:34:45.738Z,101366.44
2023-05-02T03:35:07.732Z,101367.46
2023-05-02T03:35:31.352Z,101366.88
2023-05-02T03:35:53.620Z,101367.88
2023-05-02T03:36:16.404Z,101364.48
2023-05-02T03:36:38.443Z,101368.27
2023-05-02T03:37:00.329Z,101366.98
2023-05-02T03:37:22.123Z,101370.24
2023-05-02T03:37:44.210Z,101371.05
2023-05-02T03:38:06.420Z,101369.05
2023-05-02T03:38:29.542Z,101369.95
2023-05-02T03:38:51.814Z,101370.13
2023-05-02T03:39:13.697Z,101372.27
2023-05-02T03:39:35.892Z,101369.63
2023-05-02T03:39:57.967Z,101371.32
2023-05-02T03:40:22.137Z,101370.64
2023-05-02T03:40:44.417Z,101369.17
2023-05-02T03:41:06.605Z,101371.26
2023-05-02T03:41:28.842Z,101375.98
2023-05-02T03:41:55.184Z,101372.91
2023-05-02T03:42:16.967Z,101375.38
2023-05-02T03:42:41.329Z,101375.25
2023-05-02T03:43:06.675Z,101373.16
2023-05-02T03:43:28.667Z,101371.67
2023-05-02T03:43:51.275Z,101370.16
2023-05-02T03:44:14.384Z,101373.94
2023-05-02T03:44:36.691Z,101372.14
2023-05-02T03:44:58.465Z,101374.52
2023-05-02T03:45:21.138Z,101376.56
2023-05-02T03:45:43.467Z,101374.93
2023-05-02T03:46:08.025Z,101376.11
2023-05-02T03:46:29.971Z,101382.39
2023-05-02T03:46:52.065Z,101383.59
2023-05-02T03:47:14.087Z,101384.06
2023-05-02T03:47:36.231Z,101385.23
2023-05-02T03:47:58.198Z,101384.85
2023-05-02T03:48:20.361Z,101389.19
2023-05-02T03:48:42.132Z,101389.47
2023-05-02T03:49:03.919Z,101389.09
2023-05-02T03:49:27.064Z,101390.91
2023-05-02T03:49:49.518Z,101390.34
2023-05-02T03:50:11.283Z,101389.97
2023-05-02T03:50:33.513Z,101390.73
2023-05-02T03:50:55.401Z,101391.36
2023-05-02T03:51:17.590Z,101390.91
2023-05-02T03:51:39.482Z,101392.67
2023-05-02T03:52:01.277Z,101394.25
2023-05-02T03:52:23.669Z,101393.57
2023-05-02T03:52:45.657Z,101392.11
2023-05-02T03:53:08.573Z,101389.33
2023-05-02T03:53:33.880Z,101387.36
2023-05-02T03:53:55.715Z,101390.50
2023-05-02T03:54:18.212Z,101391.89
2023-05-02T03:54:40.002Z,101391.59
2023-05-02T03:55:02.006Z,101391.29
2023-05-02T03:55:24.186Z,101390.45
2023-05-02T03:55:46.676Z,101391.89
2023-05-02T03:56:11.428Z,101392.33
2023-05-02T03:56:41.334Z,101387.38
2023-05-02T03:57:14.532Z,101391.55
2023-05-02T03:57:36.523Z,101393.27
2023-05-02T03:57:58.310Z,101395.89
2023-05-02T03:58:20.136Z,101395.15
2023-05-02T03:58:42.185Z,101394.73
2023-05-02T03:59:04.280Z,101396.55
2023-05-02T03:59:26.164Z,101397.39
2023-05-02T03:59:48.365Z,101394.72
2023-05-02T04:00:13.553Z,101396.95
2023-05-02T04:00:38.989Z,101396.45
2023-05-02T04:01:01.178Z,101394.68
2023-05-02T04:01:23.695Z,101395.23
2023-05-02T04:01:50.265Z,101397.45
2023-05-02T04:02:13.335Z,101392.59
2023-05-02T04:02:38.942Z,101394.65
2023-05-02T04:03:04.048Z,101397.27
2023-05-02T04:03:29.388Z,101396.79
2023-05-02T04:03:52.382Z,101395.20
2023-05-02T04:04:17.565Z,101397.58
2023-05-02T04:04:44.088Z,101395.24
2023-05-02T04:05:08.733Z,101396.89
2023-05-02T04:05:31.073Z,101399.54
2023-05-02T04:05:53.070Z,101398.71
2023-05-02T04:06:15.110Z,101400.63
2023-05-02T04:06:38.961Z,101400.48
2023-05-02T04:07:02.302Z,101399.27
2023-05-02T04:07:26.044Z,101402.09
2023-05-02T04:07:57.156Z,101403.63
2023-05-02T04:08:19.243Z,101402.96
2023-05-02T04:08:41.536Z,101400.41
2023-05-02T04:09:03.426Z,101400.95
2023-05-02T04:09:31.626Z,101403.33
2023-05-02T04:10:00.093Z,101401.98
2023-05-02T04:10:22.258Z,101402.48
2023-05-02T04:10:51.198Z,101400.29
2023-05-02T04:11:13.494Z,101401.81
2023-05-02T04:11:35.586Z,101403.20
2023-05-02T04:11:58.464Z,101405.13
2023-05-02T04:12:20.583Z,101405.48
2023-05-02T04:12:44.741Z,101404.91
2023-05-02T04:13:06.818Z,101408.21
2023-05-02T04:13:29.524Z,101405.91
2023-05-02T04:13:53.369Z,101409.56
2023-05-02T04:14:15.648Z,101407.07
2023-05-02T04:14:38.655Z,101407.20
2023-05-02T04:15:00.745Z,101406.27
2023-05-02T04:15:24.350Z,101408.52
2023-05-02T04:15:47.999Z,101408.98
2023-05-02T04:16:13.011Z,101409.14
2023-05-02T04:16:35.204Z,101411.36
2023-05-02T04:16:57.060Z,101410.41
2023-05-02T04:17:27.935Z,101413.27
2023-05-02T04:17:49.929Z,101412.27
2023-05-02T04:18:11.950Z,101415.48
2023-05-02T04:18:33.773Z,101414.59
2023-05-02T04:18:57.416Z,101416.10
2023-05-02T04:19:19.668Z,101418.10
2023-05-02T04:19:41.694Z,101415.77
2023-05-02T04:20:05.750Z,101416.66
2023-05-02T04:20:29.572Z,101416.97
2023-05-02T04:20:51.447Z,101419.39
2023-05-02T04:21:14.560Z,101417.29
2023-05-02T04:21:37.392Z,101413.77
2023-05-02T04:22:00.154Z,101414.35
2023-05-02T04:22:21.900Z,101417.94
2023-05-02T04:22:50.286Z,101418.27
2023-05-02T04:23:12.282Z,101416.07
2023-05-02T04:23:34.065Z,101415.16
2023-05-02T04:23:56.972Z,101411.89
2023-05-02T04:24:19.068Z,101416.07
2023-05-02T04:24:40.849Z,101413.60
2023-05-02T04:25:02.939Z,101414.60
2023-05-02T04:25:25.541Z,101413.00
2023-05-02T04:25:56.381Z,101418.28
2023-05-02T04:26:24.473Z,101418.44
2023-05-02T04:26:52.378Z,101413.52
2023-05-02T04:27:15.442Z,101414.35
2023-05-02T04:27:38.701Z,101417.36
2023-05-02T04:28:02.739Z,101420.50
2023-05-02T04:28:25.242Z,101420.86
2023-05-02T04:28:47.386Z,101420.78
2023-05-02T04:29:10.646Z,101418.13
2023-05-02T04:29:33.012Z,101418.46
2023-05-02T04:29:55.134Z,101420.16
2023-05-02T04:30:17.432Z,101418.98
2023-05-02T04:30:45.526Z,101417.27
2023-05-02T04:31:07.693Z,101417.98
2023-05-02T04:31:30.656Z,101415.38
2023-05-02T04:31:52.751Z,101416.30
2023-05-02T04:32:15.454Z,101416.66
2023-05-02T04:32:38.196Z,101417.75
2023-05-02T04:33:00.971Z,101419.19